createdAt,value
2018-10-06T00:01:22.688Z,7.27
2018-10-06T00:03:52.143Z,9.70
2018-10-06T00:06:21.551Z,7.63
2018-10-06T00:08:50.999Z,7.17
2018-10-06T00:11:20.425Z,7.20
2018-10-06T00:13:49.819Z,10.57
2018-10-06T00:16:19.236Z,5.67
2018-10-06T00:18:48.645Z,6.27
2018-10-06T00:21:18.223Z,6.77
2018-10-06T00:23:47.624Z,9.53
2018-10-06T00:26:17.004Z,5.60
2018-10-06T00:28:46.383Z,6.80
2018-10-06T00:31:15.799Z,6.43
2018-10-06T00:33:45.231Z,9.90
2018-10-06T00:36:14.667Z,6.57
2018-10-06T00:38:44.099Z,5.97
2018-10-06T00:41:13.571Z,7.40
2018-10-06T00:43:42.987Z,6.67
2018-10-06T00:46:12.439Z,7.50
2018-10-06T00:48:41.828Z,6.60
2018-10-06T00:51:11.263Z,7.07
2018-10-06T00:53:40.700Z,7.70
2018-10-06T00:56:10.135Z,6.07
2018-10-06T00:58:39.519Z,7.03
2018-10-06T01:01:08.949Z,6.50
2018-10-06T01:03:38.339Z,8.50
2018-10-06T01:06:07.839Z,7.90
2018-10-06T01:08:37.251Z,7.93
2018-10-06T01:11:06.692Z,6.10
2018-10-06T01:13:36.178Z,8.33
2018-10-06T01:16:05.584Z,5.93
2018-10-06T01:18:34.980Z,6.20
2018-10-06T01:21:04.448Z,7.17
2018-10-06T01:23:33.867Z,8.00
2018-10-06T01:26:03.279Z,6.47
2018-10-06T01:28:32.703Z,8.40
2018-10-06T01:31:02.123Z,6.03
2018-10-06T01:33:31.559Z,9.10
2018-10-06T01:36:01.100Z,7.20
2018-10-06T01:38:30.510Z,7.80
2018-10-06T01:40:59.907Z,7.20
2018-10-06T01:43:29.339Z,7.90
2018-10-06T01:45:58.775Z,6.70
2018-10-06T01:48:28.171Z,8.00
2018-10-06T01:50:57.750Z,7.87
2018-10-06T01:53:27.106Z,7.70
2018-10-06T01:55:56.527Z,8.90
2018-10-06T01:58:25.959Z,7.00
2018-10-06T02:00:55.347Z,8.97
2018-10-06T02:03:24.760Z,8.77
2018-10-06T02:05:54.200Z,8.57
2018-10-06T02:08:23.618Z,6.47
2018-10-06T02:10:53.020Z,5.73
2018-10-06T02:13:22.476Z,6.50
2018-10-06T02:15:51.986Z,7.17
2018-10-06T02:18:21.395Z,8.53
2018-10-06T02:20:50.853Z,5.53
2018-10-06T02:23:20.483Z,6.80
2018-10-06T02:25:49.891Z,7.63
2018-10-06T02:28:19.301Z,7.60
2018-10-06T02:30:48.810Z,6.30
2018-10-06T02:33:18.816Z,6.45
2018-10-06T02:35:48.218Z,6.90
2018-10-06T02:38:18.768Z,7.74
2018-10-06T02:40:48.239Z,6.30
2018-10-06T02:43:18.804Z,7.17
2018-10-06T02:45:48.439Z,7.60
2018-10-06T02:48:18.840Z,8.58
2018-10-06T02:50:48.664Z,7.27
2018-10-06T02:53:18.715Z,7.05
2018-10-06T02:55:48.132Z,8.03
2018-10-06T02:58:18.778Z,7.10
2018-10-06T03:00:48.216Z,6.90
2018-10-06T03:03:18.895Z,6.80
2018-10-06T03:05:48.314Z,7.53
2018-10-06T03:08:18.940Z,6.23
2018-10-06T03:10:48.355Z,5.23
2018-10-06T03:13:18.868Z,5.66
2018-10-06T03:15:48.372Z,5.63
2018-10-06T03:18:18.904Z,6.48
2018-10-06T03:20:48.313Z,5.67
2018-10-06T03:23:18.952Z,11.50
2018-10-06T03:25:48.355Z,6.30
2018-10-06T03:28:18.992Z,5.07
2018-10-06T03:30:48.396Z,6.60
2018-10-06T03:33:19.040Z,5.87
2018-10-06T03:35:48.474Z,6.10
2018-10-06T03:38:19.119Z,7.50
2018-10-06T03:40:48.643Z,5.47
2018-10-06T03:43:19.071Z,6.28
2018-10-06T03:45:48.467Z,6.87
2018-10-06T03:48:19.113Z,6.13
2018-10-06T03:50:48.507Z,7.33
2018-10-06T03:53:19.159Z,6.40
2018-10-06T03:55:48.548Z,6.57
2018-10-06T03:58:19.103Z,5.56
2018-10-06T04:00:48.491Z,6.30
2018-10-06T04:03:19.131Z,5.90
2018-10-06T04:05:48.528Z,5.80
2018-10-06T04:08:19.168Z,6.03
2018-10-06T04:10:48.586Z,6.33
2018-10-06T04:13:19.080Z,4.82
2018-10-06T04:15:48.535Z,6.80
2018-10-06T04:18:19.165Z,4.87
2018-10-06T04:20:48.600Z,6.47
2018-10-06T04:23:19.117Z,6.32
2018-10-06T04:25:48.544Z,5.23
2018-10-06T04:28:19.319Z,6.57
2018-10-06T04:30:48.695Z,5.70
2018-10-06T04:33:19.107Z,4.80
2018-10-06T04:35:48.511Z,5.83
2018-10-06T04:38:19.135Z,5.87
2018-10-06T04:40:48.572Z,6.27
2018-10-06T04:43:19.196Z,6.70
2018-10-06T04:45:48.620Z,5.17
2018-10-06T04:48:19.108Z,6.02
2018-10-06T04:50:48.524Z,5.30
2018-10-06T04:53:19.239Z,7.03
2018-10-06T04:55:48.607Z,4.97
2018-10-06T04:58:19.272Z,7.30
2018-10-06T05:00:48.716Z,6.20
2018-10-06T05:03:19.122Z,5.40
2018-10-06T05:05:48.576Z,5.50
2018-10-06T05:08:19.208Z,5.43
2018-10-06T05:10:48.619Z,6.10
2018-10-06T05:13:19.257Z,5.93
2018-10-06T05:15:48.819Z,5.03
2018-10-06T05:18:19.119Z,5.10
2018-10-06T05:20:48.552Z,5.20
2018-10-06T05:23:19.196Z,5.10
2018-10-06T05:25:48.628Z,6.37
2018-10-06T05:28:19.260Z,6.37
2018-10-06T05:30:48.698Z,5.87
2018-10-06T05:33:19.220Z,7.04
2018-10-06T05:35:48.689Z,6.70
2018-10-06T05:38:19.152Z,6.28
2018-10-06T05:40:48.584Z,5.23
2018-10-06T05:43:19.215Z,5.70
2018-10-06T05:45:48.727Z,4.60
2018-10-06T05:48:19.221Z,6.00
2018-10-06T05:50:48.616Z,4.90
2018-10-06T05:53:19.152Z,5.58
2018-10-06T05:55:48.540Z,6.87
2018-10-06T05:58:19.251Z,8.00
2018-10-06T06:00:48.649Z,6.80
2018-10-06T06:03:19.416Z,6.90
2018-10-06T06:05:48.812Z,7.33
2018-10-06T06:08:19.281Z,7.40
2018-10-06T06:10:48.668Z,6.20
2018-10-06T06:13:19.308Z,5.03
2018-10-06T06:15:48.789Z,5.90
2018-10-06T06:18:19.363Z,5.90
2018-10-06T06:20:48.773Z,6.90
2018-10-06T06:23:19.416Z,5.50
2018-10-06T06:25:48.840Z,5.93
2018-10-06T06:28:19.503Z,5.57
2018-10-06T06:30:48.903Z,5.80
2018-10-06T06:33:19.424Z,6.20
2018-10-06T06:35:48.840Z,5.77
2018-10-06T06:38:19.488Z,6.58
2018-10-06T06:40:48.891Z,6.60
2018-10-06T06:43:19.709Z,6.46
2018-10-06T06:45:49.118Z,6.20
2018-10-06T06:48:19.402Z,5.85
2018-10-06T06:50:48.991Z,6.13
2018-10-06T06:53:19.393Z,7.17
2018-10-06T06:55:48.796Z,11.40
2018-10-06T06:58:19.456Z,8.33
2018-10-06T07:00:48.894Z,6.37
2018-10-06T07:03:19.548Z,8.60
2018-10-06T07:05:49.017Z,7.73
2018-10-06T07:08:19.406Z,7.95
2018-10-06T07:10:48.808Z,7.80
2018-10-06T07:13:19.452Z,7.53
2018-10-06T07:15:48.851Z,7.60
2018-10-06T07:18:19.563Z,7.00
2018-10-06T07:20:48.919Z,6.58
2018-10-06T07:23:19.465Z,6.46
2018-10-06T07:25:48.864Z,6.97
2018-10-06T07:28:19.412Z,6.66
2018-10-06T07:30:48.808Z,7.83
2018-10-06T07:33:19.447Z,8.50
2018-10-06T07:35:48.854Z,7.33
2018-10-06T07:38:19.467Z,5.87
2018-10-06T07:40:48.871Z,7.20
2018-10-06T07:43:19.387Z,7.16
2018-10-06T07:45:48.807Z,5.30
2018-10-06T07:48:19.520Z,6.83
2018-10-06T07:50:49.172Z,6.73
2018-10-06T07:53:19.553Z,8.95
2018-10-06T07:55:48.948Z,9.30
2018-10-06T07:58:19.480Z,8.16
2018-10-06T08:00:48.832Z,9.53
2018-10-06T08:03:19.616Z,8.90
2018-10-06T08:05:49.125Z,8.10
2018-10-06T08:08:19.619Z,7.47
2018-10-06T08:10:49.076Z,9.37
2018-10-06T08:13:19.500Z,8.70
2018-10-06T08:15:48.920Z,8.90
2018-10-06T08:18:19.439Z,9.92
2018-10-06T08:20:48.891Z,8.87
2018-10-06T08:23:19.589Z,11.37
2018-10-06T08:25:49.004Z,10.07
2018-10-06T08:28:19.500Z,10.10
2018-10-06T08:30:48.920Z,9.00
2018-10-06T08:33:19.580Z,11.67
2018-10-06T08:35:49.007Z,12.60
2018-10-06T08:38:19.497Z,11.86
2018-10-06T08:40:48.892Z,12.00
2018-10-06T08:43:19.552Z,14.37
2018-10-06T08:45:48.977Z,12.83
2018-10-06T08:48:19.468Z,12.08
2018-10-06T08:50:48.861Z,13.20
2018-10-06T08:53:19.504Z,11.67
2018-10-06T08:55:48.914Z,13.47
2018-10-06T08:58:19.608Z,13.60
2018-10-06T09:00:49.020Z,13.40
2018-10-06T09:03:19.568Z,14.35
2018-10-06T09:05:49.000Z,14.17
2018-10-06T09:08:19.484Z,14.90
2018-10-06T09:10:48.944Z,20.93
2018-10-06T09:13:19.585Z,15.87
2018-10-06T09:15:49.015Z,12.60
2018-10-06T09:18:19.625Z,11.45
2018-10-06T09:20:49.064Z,13.17
2018-10-06T09:23:19.504Z,12.25
2018-10-06T09:25:49.021Z,12.00
2018-10-06T09:28:19.598Z,12.16
2018-10-06T09:30:49.089Z,13.70
2018-10-06T09:33:19.496Z,9.98
2018-10-06T09:35:49.037Z,12.87
2018-10-06T09:38:19.504Z,11.48
2018-10-06T09:40:48.945Z,10.10
2018-10-06T09:43:19.588Z,12.53
2018-10-06T09:45:49.032Z,10.83
2018-10-06T09:48:19.706Z,10.80
2018-10-06T09:50:49.118Z,10.07
2018-10-06T09:53:19.539Z,10.28
2018-10-06T09:55:48.956Z,11.20
2018-10-06T09:58:19.616Z,9.10
2018-10-06T10:00:54.146Z,8.30
2018-10-06T10:03:28.928Z,9.20
2018-10-06T10:05:58.506Z,9.33
2018-10-06T10:08:27.816Z,10.10
2018-10-06T10:10:57.224Z,10.17
2018-10-06T10:13:26.615Z,8.50
2018-10-06T10:15:56.008Z,10.63
2018-10-06T10:18:25.582Z,8.23
2018-10-06T10:20:54.955Z,10.83
2018-10-06T10:23:24.439Z,10.15
2018-10-06T10:25:53.796Z,11.40
2018-10-06T10:28:23.274Z,7.90
2018-10-06T10:30:52.617Z,10.97
2018-10-06T10:33:22.063Z,10.87
2018-10-06T10:35:51.493Z,9.27
2018-10-06T10:38:20.947Z,10.60
2018-10-06T10:40:51.148Z,9.57
2018-10-06T10:43:20.616Z,10.63
2018-10-06T10:45:50.043Z,10.30
2018-10-06T10:48:19.860Z,10.55
2018-10-06T10:50:49.249Z,8.77
2018-10-06T10:53:19.843Z,8.68
2018-10-06T10:55:49.266Z,9.07
2018-10-06T10:58:19.744Z,8.33
2018-10-06T11:00:49.146Z,9.57
2018-10-06T11:03:19.916Z,8.97
2018-10-06T11:05:49.323Z,9.27
2018-10-06T11:08:19.866Z,8.55
2018-10-06T11:10:49.312Z,8.00
2018-10-06T11:13:19.744Z,7.72
2018-10-06T11:15:49.208Z,8.30
2018-10-06T11:18:19.868Z,7.30
2018-10-06T11:20:49.315Z,8.77
2018-10-06T11:23:19.804Z,6.36
2018-10-06T11:25:49.239Z,6.60
2018-10-06T11:28:19.742Z,8.22
2018-10-06T11:30:49.195Z,7.60
2018-10-06T11:33:19.820Z,8.10
2018-10-06T11:35:50.207Z,7.43
2018-10-06T11:38:19.885Z,6.95
2018-10-06T11:40:49.231Z,6.40
2018-10-06T11:43:19.743Z,7.08
2018-10-06T11:45:49.235Z,12.50
2018-10-06T11:48:19.788Z,7.48
2018-10-06T11:50:49.195Z,5.93
2018-10-06T11:53:19.844Z,6.97
2018-10-06T11:55:49.271Z,7.10
2018-10-06T11:58:21.496Z,6.67
2018-10-06T12:00:51.001Z,10.67
2018-10-06T12:03:20.596Z,9.07
2018-10-06T12:05:50.152Z,8.00
2018-10-06T12:08:19.849Z,6.33
2018-10-06T12:10:49.260Z,6.53
2018-10-06T12:13:20.023Z,6.30
2018-10-06T12:15:49.415Z,6.80
2018-10-06T12:18:19.789Z,6.33
2018-10-06T12:20:49.196Z,6.60
2018-10-06T12:23:19.866Z,6.40
2018-10-06T12:25:49.300Z,8.10
2018-10-06T12:28:19.991Z,6.20
2018-10-06T12:30:49.399Z,7.00
2018-10-06T12:33:20.061Z,9.40
2018-10-06T12:35:49.657Z,9.30
2018-10-06T12:38:20.048Z,8.15
2018-10-06T12:40:49.447Z,9.83
2018-10-06T12:43:19.982Z,7.46
2018-10-06T12:45:49.405Z,7.97
2018-10-06T12:48:20.072Z,6.77
2018-10-06T12:50:49.494Z,9.00
2018-10-06T12:53:20.037Z,8.72
2018-10-06T12:55:49.429Z,8.37
2018-10-06T12:58:20.104Z,8.40
2018-10-06T13:00:49.511Z,7.63
2018-10-06T13:03:20.264Z,8.80
2018-10-06T13:05:49.707Z,7.90
2018-10-06T13:08:20.059Z,7.12
2018-10-06T13:10:49.497Z,7.30
2018-10-06T13:13:20.152Z,7.50
2018-10-06T13:15:49.591Z,6.40
2018-10-06T13:18:20.081Z,5.37
2018-10-06T13:20:49.488Z,6.80
2018-10-06T13:23:20.023Z,5.68
2018-10-06T13:25:49.483Z,7.43
2018-10-06T13:28:20.124Z,6.17
2018-10-06T13:30:49.584Z,6.70
2018-10-06T13:33:20.037Z,6.30
2018-10-06T13:35:49.444Z,7.03
2018-10-06T13:38:20.109Z,5.37
2018-10-06T13:40:49.512Z,6.60
2018-10-06T13:43:20.231Z,4.80
2018-10-06T13:45:49.631Z,6.30
2018-10-06T13:48:20.100Z,6.40
2018-10-06T13:50:49.615Z,6.63
2018-10-06T13:53:20.092Z,5.30
2018-10-06T13:55:49.503Z,6.83
2018-10-06T13:58:20.180Z,6.40
2018-10-06T14:00:49.924Z,5.80
2018-10-06T14:03:20.313Z,4.85
2018-10-06T14:05:49.753Z,5.40
2018-10-06T14:08:20.228Z,6.22
2018-10-06T14:10:49.692Z,5.00
2018-10-06T14:13:20.043Z,5.80
2018-10-06T14:15:49.471Z,6.27
2018-10-06T14:18:20.109Z,6.10
2018-10-06T14:20:49.532Z,6.40
2018-10-06T14:23:20.179Z,5.60
2018-10-06T14:25:49.590Z,5.70
2018-10-06T14:28:20.115Z,6.33
2018-10-06T14:30:49.515Z,4.90
2018-10-06T14:33:20.072Z,5.68
2018-10-06T14:35:49.488Z,4.47
2018-10-06T14:38:20.142Z,4.80
2018-10-06T14:40:49.620Z,6.40
2018-10-06T14:43:20.085Z,4.72
2018-10-06T14:45:49.612Z,5.90
2018-10-06T14:48:20.120Z,4.62
2018-10-06T14:50:49.667Z,5.50
2018-10-06T14:53:20.127Z,3.95
2018-10-06T14:55:49.572Z,6.63
2018-10-06T14:58:20.095Z,4.82
2018-10-06T15:00:49.547Z,5.43
2018-10-06T15:03:20.262Z,5.03
2018-10-06T15:05:49.747Z,5.23
2018-10-06T15:08:20.235Z,4.42
2018-10-06T15:10:49.674Z,6.00
2018-10-06T15:13:20.269Z,5.42
2018-10-06T15:15:49.695Z,6.03
2018-10-06T15:18:20.138Z,5.58
2018-10-06T15:20:49.548Z,3.67
2018-10-06T15:23:20.196Z,6.50
2018-10-06T15:25:49.595Z,4.70
2018-10-06T15:28:20.264Z,4.40
2018-10-06T15:30:49.672Z,6.17
2018-10-06T15:33:20.119Z,5.35
2018-10-06T15:35:49.588Z,6.43
2018-10-06T15:38:20.190Z,4.07
2018-10-06T15:40:49.579Z,4.93
2018-10-06T15:43:20.257Z,4.87
2018-10-06T15:45:49.655Z,5.13
2018-10-06T15:48:20.153Z,4.00
2018-10-06T15:50:49.558Z,6.43
2018-10-06T15:53:20.215Z,7.63
2018-10-06T15:55:49.644Z,8.40
2018-10-06T15:58:20.177Z,7.28
2018-10-06T16:00:49.613Z,5.93
2018-10-06T16:03:20.113Z,6.02
2018-10-06T16:05:49.667Z,8.10
2018-10-06T16:08:20.144Z,5.17
2018-10-06T16:10:49.552Z,6.20
2018-10-06T16:13:20.201Z,6.40
2018-10-06T16:15:49.634Z,5.33
2018-10-06T16:18:20.275Z,5.90
2018-10-06T16:20:49.720Z,5.30
2018-10-06T16:23:20.172Z,7.50
2018-10-06T16:25:49.660Z,5.83
2018-10-06T16:28:20.211Z,5.68
2018-10-06T16:30:49.700Z,6.27
2018-10-06T16:33:20.226Z,6.00
2018-10-06T16:35:49.627Z,9.50
2018-10-06T16:38:20.276Z,8.30
2018-10-06T16:40:49.713Z,13.33
2018-10-06T16:43:20.235Z,23.18
2018-10-06T16:45:49.706Z,22.10
2018-10-06T16:48:20.200Z,18.20
2018-10-06T16:50:49.611Z,20.70
2018-10-06T16:53:20.320Z,16.90
2018-10-06T16:55:49.763Z,16.53
2018-10-06T16:58:20.208Z,14.10
2018-10-06T17:00:49.631Z,13.20
2018-10-06T17:03:20.272Z,11.10
2018-10-06T17:05:49.692Z,11.57
2018-10-06T17:08:20.167Z,12.15
2018-10-06T17:10:49.637Z,11.77
2018-10-06T17:13:20.164Z,13.17
2018-10-06T17:15:49.604Z,17.63
2018-10-06T17:18:20.248Z,13.73
2018-10-06T17:20:49.688Z,13.20
2018-10-06T17:23:20.351Z,16.20
2018-10-06T17:25:49.764Z,13.67
2018-10-06T17:28:20.212Z,12.20
2018-10-06T17:30:49.688Z,11.27
2018-10-06T17:33:20.223Z,9.26
2018-10-06T17:35:49.656Z,8.50
2018-10-06T17:38:20.187Z,9.68
2018-10-06T17:40:49.639Z,8.90
2018-10-06T17:43:20.295Z,8.00
2018-10-06T17:45:49.756Z,7.53
2018-10-06T17:48:20.231Z,9.23
2018-10-06T17:50:49.824Z,7.23
2018-10-06T17:53:20.291Z,7.03
2018-10-06T17:55:49.776Z,9.00
2018-10-06T17:58:20.316Z,9.85
2018-10-06T18:00:49.680Z,7.70
2018-10-06T18:03:20.368Z,7.72
2018-10-06T18:05:49.785Z,7.77
2018-10-06T18:08:20.203Z,8.13
2018-10-06T18:10:49.615Z,8.33
2018-10-06T18:13:20.313Z,8.33
2018-10-06T18:15:49.712Z,6.60
2018-10-06T18:18:20.216Z,5.78
2018-10-06T18:20:49.741Z,8.10
2018-10-06T18:23:20.356Z,8.70
2018-10-06T18:25:49.860Z,9.27
2018-10-06T18:28:20.303Z,8.55
2018-10-06T18:30:49.843Z,8.77
2018-10-06T18:33:20.227Z,6.95
2018-10-06T18:35:49.648Z,7.73
2018-10-06T18:38:20.300Z,7.80
2018-10-06T18:40:49.780Z,8.13
2018-10-06T18:43:20.343Z,8.86
2018-10-06T18:45:49.737Z,10.53
2018-10-06T18:48:20.260Z,7.22
2018-10-06T18:50:49.684Z,7.20
2018-10-06T18:53:20.329Z,7.33
2018-10-06T18:55:49.784Z,6.87
2018-10-06T18:58:20.426Z,8.13
2018-10-06T19:00:49.900Z,7.70
2018-10-06T19:03:20.510Z,6.28
2018-10-06T19:05:49.872Z,6.90
2018-10-06T19:08:20.505Z,7.77
2018-10-06T19:10:49.913Z,6.40
2018-10-06T19:13:20.615Z,7.30
2018-10-06T19:15:50.127Z,6.70
2018-10-06T19:18:20.564Z,5.55
2018-10-06T19:20:50.020Z,7.53
2018-10-06T19:23:20.520Z,8.83
2018-10-06T19:25:50.095Z,8.00
2018-10-06T19:28:20.613Z,7.05
2018-10-06T19:30:50.410Z,8.90
2018-10-06T19:33:20.628Z,10.95
2018-10-06T19:35:50.277Z,9.30
2018-10-06T19:38:20.553Z,9.20
2018-10-06T19:40:51.309Z,7.57
2018-10-06T19:43:20.890Z,9.00
2018-10-06T19:45:50.760Z,8.40
2018-10-06T19:48:21.856Z,9.30
2018-10-06T19:50:52.060Z,11.60
2018-10-06T19:53:21.894Z,8.80
2018-10-06T19:55:52.384Z,8.63
2018-10-06T19:58:21.858Z,9.23
2018-10-06T20:00:51.904Z,8.90
2018-10-06T20:03:22.238Z,7.83
2018-10-06T20:05:52.446Z,8.10
2018-10-06T20:08:21.896Z,7.70
2018-10-06T20:10:51.433Z,7.53
2018-10-06T20:13:21.068Z,6.60
2018-10-06T20:15:50.804Z,9.57
2018-10-06T20:18:20.683Z,8.55
2018-10-06T20:20:50.125Z,8.00
2018-10-06T20:23:20.612Z,7.90
2018-10-06T20:25:50.419Z,8.50
2018-10-06T20:28:20.944Z,8.03
2018-10-06T20:30:50.377Z,7.47
2018-10-06T20:33:20.640Z,10.30
2018-10-06T20:35:50.163Z,8.40
2018-10-06T20:38:20.499Z,8.55
2018-10-06T20:40:49.954Z,8.07
2018-10-06T20:43:20.616Z,9.70
2018-10-06T20:45:50.137Z,9.50
2018-10-06T20:48:20.545Z,6.75
2018-10-06T20:50:49.955Z,8.90
2018-10-06T20:53:20.635Z,9.00
2018-10-06T20:55:50.043Z,8.37
2018-10-06T20:58:20.659Z,10.00
2018-10-06T21:00:50.109Z,7.97
2018-10-06T21:03:20.588Z,8.98
2018-10-06T21:05:50.008Z,10.70
2018-10-06T21:08:20.660Z,9.20
2018-10-06T21:10:50.134Z,17.20
2018-10-06T21:13:20.532Z,17.27
2018-10-06T21:15:49.954Z,10.20
2018-10-06T21:18:20.614Z,8.00
2018-10-06T21:20:50.039Z,10.93
2018-10-06T21:23:20.571Z,8.28
2018-10-06T21:25:49.992Z,8.50
2018-10-06T21:28:20.674Z,10.40
2018-10-06T21:30:50.180Z,9.17
2018-10-06T21:33:21.011Z,9.00
2018-10-06T21:35:51.856Z,9.63
2018-10-06T21:38:21.676Z,8.93
2018-10-06T21:40:51.220Z,8.70
2018-10-06T21:43:20.856Z,10.50
2018-10-06T21:45:50.517Z,7.67
2018-10-06T21:48:20.755Z,8.15
2018-10-06T21:50:50.484Z,9.10
2018-10-06T21:53:20.815Z,8.63
2018-10-06T21:55:50.671Z,11.00
2018-10-06T21:58:20.792Z,11.20
2018-10-06T22:00:55.768Z,11.20
2018-10-06T22:03:25.573Z,9.10
2018-10-06T22:05:55.395Z,10.87
2018-10-06T22:08:24.848Z,9.60
2018-10-06T22:10:54.357Z,10.80
2018-10-06T22:13:24.419Z,8.00
2018-10-06T22:15:53.845Z,10.30
2018-10-06T22:18:23.291Z,5.80
2018-10-06T22:20:52.718Z,9.80
2018-10-06T22:23:22.139Z,10.90
2018-10-06T22:25:51.721Z,10.40
2018-10-06T22:28:21.132Z,9.70
2018-10-06T22:30:50.903Z,10.97
2018-10-06T22:33:21.019Z,12.03
2018-10-06T22:35:50.567Z,10.60
2018-10-06T22:38:21.111Z,8.63
2018-10-06T22:40:50.951Z,9.30
2018-10-06T22:43:21.278Z,8.63
2018-10-06T22:45:50.968Z,9.00
2018-10-06T22:48:21.002Z,7.05
2018-10-06T22:50:50.519Z,7.77
2018-10-06T22:53:21.243Z,8.68
2018-10-06T22:55:50.867Z,8.90
2018-10-06T22:58:21.190Z,7.62
2018-10-06T23:00:50.727Z,8.10
2018-10-06T23:03:21.040Z,7.15
2018-10-06T23:05:50.687Z,8.83
2018-10-06T23:08:21.002Z,8.20
2018-10-06T23:10:50.436Z,8.00
2018-10-06T23:13:21.289Z,8.03
2018-10-06T23:15:50.959Z,8.27
2018-10-06T23:18:21.042Z,8.90
2018-10-06T23:20:50.749Z,6.00
2018-10-06T23:23:21.172Z,8.90
2018-10-06T23:25:52.049Z,8.10
2018-10-06T23:28:21.880Z,6.97
2018-10-06T23:30:51.413Z,7.73
2018-10-06T23:33:20.999Z,7.47
2018-10-06T23:35:50.436Z,7.33
2018-10-06T23:38:20.913Z,7.35
2018-10-06T23:40:50.587Z,6.50
2018-10-06T23:43:21.056Z,7.47
2018-10-06T23:45:50.586Z,8.53
2018-10-06T23:48:20.879Z,7.50
2018-10-06T23:50:50.300Z,7.50
2018-10-06T23:53:20.919Z,9.68
2018-10-06T23:55:50.313Z,7.40
2018-10-06T23:58:20.951Z,10.88
